Time;durP1;ratioP1;P1;durP2;ratioP2;P2;SDS_P1;SDS_P2;PMS_P1;PMS_P2;Temp;Humidity;BMP_temperature;BMP_pressure;BME280_temperature;BME280_humidity;BME280_pressure;Samples;Min_cycle;Max_cycle;Signal;HPM_P1;HPM_P2
2023/10/18 06:09:47;;;;;;;30.40;15.47;;;3.40;99.90;;;;;;5386931;23;20265;-80
2023/10/18 06:12:40;;;;;;;34.13;16.63;;;3.50;99.90;;;;;;4881651;29;20298;-83
2023/10/18 06:15:39;;;;;;;33.20;15.80;;;3.50;99.90;;;;;;4820871;29;20268;-84
2023/10/18 06:18:45;;;;;;;33.23;16.43;;;3.50;99.90;;;;;;4803396;29;20725;-79
2023/10/18 06:21:57;;;;;;;31.17;15.20;;;3.70;99.90;;;;;;4831186;29;20768;-84
2023/10/18 06:25:34;;;;;;;33.43;15.10;;;3.90;99.90;;;;;;4837368;29;20198;-84
2023/10/18 06:28:45;;;;;;;33.63;16.07;;;3.70;99.90;;;;;;4815790;29;20272;-83
2023/10/18 06:31:54;;;;;;;30.93;15.43;;;3.90;99.90;;;;;;4749806;30;20213;-84
2023/10/18 06:35:26;;;;;;;32.50;15.77;;;3.90;99.90;;;;;;4755974;30;20216;-82
2023/10/18 06:38:31;;;;;;;30.17;15.37;;;3.90;99.90;;;;;;4739234;30;20269;-82
2023/10/18 06:44:30;;;;;;;30.60;14.53;;;4.40;99.90;;;;;;4728970;30;20237;-83
2023/10/18 06:47:43;;;;;;;27.80;15.03;;;4.30;99.90;;;;;;4717331;30;20294;-83
2023/10/18 06:53:55;;;;;;;30.03;14.33;;;4.30;99.90;;;;;;4993961;23;20246;-87
2023/10/18 06:56:39;;;;;;;32.40;14.97;;;4.50;99.90;;;;;;4922093;29;20250;-79
2023/10/18 06:59:10;;;;;;;27.40;14.17;;;4.50;99.90;;;;;;4936879;29;20207;-81
2023/10/18 07:01:58;;;;;;;28.07;14.57;;;4.90;99.90;;;;;;4936886;29;20296;-78
2023/10/18 07:04:37;;;;;;;26.53;14.53;;;4.70;99.90;;;;;;4938076;29;20194;-78
2023/10/18 07:07:22;;;;;;;28.57;14.47;;;4.90;99.90;;;;;;4938210;29;20214;-80
2023/10/18 07:10:04;;;;;;;25.17;14.07;;;5.20;99.90;;;;;;4938433;29;20249;-82
2023/10/18 07:12:44;;;;;;;25.37;13.97;;;5.40;99.90;;;;;;4937646;29;20299;-77
2023/10/18 07:15:16;;;;;;;24.63;12.93;;;5.50;99.90;;;;;;4937402;29;20292;-82
2023/10/18 07:17:49;;;;;;;23.53;12.87;;;5.60;99.90;;;;;;4953026;29;20567;-80
2023/10/18 07:20:21;;;;;;;24.17;13.03;;;5.70;99.90;;;;;;4950330;29;20615;-82
2023/10/18 07:22:56;;;;;;;32.10;16.90;;;5.70;99.90;;;;;;4918319;29;20258;-78
2023/10/18 07:25:32;;;;;;;21.90;12.70;;;5.80;99.90;;;;;;4965645;23;20240;-77
2023/10/18 07:28:04;;;;;;;24.17;12.70;;;6.00;99.90;;;;;;4898405;29;20235;-81
2023/10/18 07:30:44;;;;;;;25.80;12.13;;;6.00;99.90;;;;;;4914093;29;20208;-77
2023/10/18 07:33:15;;;;;;;20.87;12.10;;;6.10;99.90;;;;;;4914760;29;20696;-81
2023/10/18 07:35:45;;;;;;;20.23;11.20;;;6.30;99.90;;;;;;4914306;29;20274;-77
2023/10/18 07:38:28;;;;;;;20.97;11.43;;;6.50;99.90;;;;;;4913984;29;20199;-79
2023/10/18 07:41:00;;;;;;;19.33;10.53;;;6.40;99.90;;;;;;4914693;29;20208;-79
2023/10/18 07:43:32;;;;;;;21.07;10.43;;;6.50;99.90;;;;;;4914072;29;20557;-83
2023/10/18 07:46:09;;;;;;;19.13;10.30;;;6.60;99.90;;;;;;4914177;29;20211;-84
2023/10/18 07:48:47;;;;;;;21.10;9.77;;;7.00;99.90;;;;;;4915429;29;20197;-78
2023/10/18 07:51:24;;;;;;;17.43;9.10;;;7.70;99.90;;;;;;4914515;29;20319;-78
2023/10/18 07:53:55;;;;;;;18.37;9.13;;;8.00;99.90;;;;;;4913334;29;20212;-79
2023/10/18 07:56:32;;;;;;;21.23;9.50;;;8.90;99.90;;;;;;4914597;29;20321;-77
2023/10/18 08:04:48;;;;;;;14.87;8.07;;;9.50;99.90;;;;;;4902193;29;20279;-79
2023/10/18 08:07:19;;;;;;;11.77;6.80;;;10.10;99.90;;;;;;4913872;29;20218;-80
2023/10/18 08:09:57;;;;;;;13.83;6.90;;;10.30;99.90;;;;;;4913708;29;20676;-82
2023/10/18 08:12:33;;;;;;;12.37;6.37;;;10.30;99.90;;;;;;4913985;29;20285;-80
2023/10/18 08:15:13;;;;;;;12.77;6.20;;;10.70;99.90;;;;;;4913968;29;20198;-76
2023/10/18 08:17:50;;;;;;;12.70;6.20;;;10.50;99.90;;;;;;4916013;29;20630;-81
2023/10/18 08:22:55;;;;;;;8.67;5.53;;;10.60;99.90;;;;;;4913530;29;20231;-78
2023/10/18 08:25:29;;;;;;;14.07;5.80;;;10.80;99.90;;;;;;4926978;29;20698;-84
2023/10/18 08:28:28;;;;;;;10.80;5.57;;;10.70;99.90;;;;;;4917245;29;20199;-81
2023/10/18 08:31:29;;;;;;;11.67;5.53;;;11.20;99.90;;;;;;4917911;29;20221;-78
2023/10/18 08:34:15;;;;;;;8.97;4.83;;;11.60;99.90;;;;;;4917928;29;20175;-82
2023/10/18 08:37:01;;;;;;;9.47;4.93;;;11.90;99.90;;;;;;4937957;29;20213;-83
2023/10/18 08:39:52;;;;;;;9.20;4.47;;;11.90;99.90;;;;;;4919338;29;20740;-82
2023/10/18 08:42:24;;;;;;;10.07;4.67;;;12.20;99.90;;;;;;4920321;29;20301;-80
2023/10/18 08:45:07;;;;;;;6.87;4.43;;;12.10;99.90;;;;;;4921178;29;20201;-78
2023/10/18 08:47:39;;;;;;;7.40;4.40;;;12.30;99.90;;;;;;4920967;29;20203;-84
2023/10/18 08:50:10;;;;;;;7.63;3.80;;;12.80;99.90;;;;;;4937217;29;20214;-82
2023/10/18 08:52:42;;;;;;;7.67;4.10;;;13.00;99.90;;;;;;4937228;29;20811;-84
2023/10/18 08:55:43;;;;;;;7.80;4.03;;;11.90;99.90;;;;;;5053345;23;20256;-79
2023/10/18 09:02:23;;;;;;;6.97;3.63;;;12.30;99.90;;;;;;4935733;29;20250;-79
2023/10/18 09:04:54;;;;;;;6.33;3.30;;;13.40;99.90;;;;;;4935181;29;20213;-79
2023/10/18 09:07:42;;;;;;;6.10;3.50;;;13.20;99.90;;;;;;4935776;29;20217;-80
2023/10/18 09:19:01;;;;;;;10.40;3.93;;;13.00;99.90;;;;;;5132864;23;20245;-78
2023/10/18 09:21:36;;;;;;;5.47;3.43;;;13.70;99.90;;;;;;5083879;23;20294;-80
2023/10/18 09:24:09;;;;;;;5.03;3.20;;;14.20;99.90;;;;;;4929625;29;20259;-80
2023/10/18 09:26:58;;;;;;;5.10;3.27;;;14.00;99.90;;;;;;4930256;29;20210;-79
2023/10/18 09:29:27;;;;;;;5.27;3.20;;;13.50;99.90;;;;;;4934387;29;20239;-80
2023/10/18 09:32:33;;;;;;;6.50;3.07;;;13.50;99.90;;;;;;5379330;23;20290;-81
2023/10/18 09:39:44;;;;;;;5.93;2.70;;;14.60;99.90;;;;;;4896931;29;20622;-80
2023/10/18 09:42:26;;;;;;;6.47;3.37;;;14.50;99.90;;;;;;4895568;29;20216;-82
2023/10/18 09:48:24;;;;;;;6.20;2.90;;;15.30;99.90;;;;;;5209440;23;20238;-85
2023/10/18 09:51:01;;;;;;;5.73;2.97;;;14.70;99.90;;;;;;4903790;29;20215;-84
2023/10/18 09:53:31;;;;;;;5.20;2.77;;;15.10;99.90;;;;;;4902148;29;20203;-84
2023/10/18 09:56:03;;;;;;;10.37;3.00;;;15.20;99.90;;;;;;4919541;29;20213;-79
2023/10/18 09:58:41;;;;;;;5.83;2.83;;;14.90;99.90;;;;;;4879203;29;20198;-80
2023/10/18 10:01:30;;;;;;;7.63;3.10;;;15.30;99.90;;;;;;4892316;29;20227;-79
2023/10/18 10:04:03;;;;;;;3.73;2.73;;;15.40;99.90;;;;;;4863512;29;20324;-78
2023/10/18 10:06:34;;;;;;;4.77;2.70;;;15.80;99.90;;;;;;4894478;29;20227;-81
2023/10/18 10:09:12;;;;;;;5.10;2.40;;;15.90;99.90;;;;;;4895824;29;20216;-80
2023/10/18 10:11:45;;;;;;;4.17;2.30;;;16.00;99.90;;;;;;4864743;29;20208;-78
2023/10/18 10:14:16;;;;;;;3.13;2.00;;;15.70;99.90;;;;;;4864558;29;20204;-80
2023/10/18 10:16:52;;;;;;;5.33;2.30;;;15.40;99.90;;;;;;4997050;23;20709;-79
2023/10/18 10:19:29;;;;;;;5.00;2.73;;;15.80;99.90;;;;;;4953739;29;20566;-85
2023/10/18 10:22:05;;;;;;;5.20;2.23;;;16.00;99.90;;;;;;4954212;29;20248;-80
2023/10/18 10:24:45;;;;;;;4.87;2.70;;;16.30;99.90;;;;;;4955105;29;20232;-78
2023/10/18 10:27:41;;;;;;;7.00;3.00;;;16.30;99.90;;;;;;4954862;29;20262;-82
2023/10/18 10:30:33;;;;;;;5.73;2.53;;;17.10;99.90;;;;;;4938377;29;20245;-80
2023/10/18 10:33:12;;;;;;;3.83;2.33;;;16.80;99.90;;;;;;4938388;29;20637;-82
2023/10/18 10:35:56;;;;;;;3.67;2.30;;;17.10;99.90;;;;;;4936595;29;20296;-80
2023/10/18 10:38:33;;;;;;;4.30;2.23;;;17.10;99.90;;;;;;4938675;29;20204;-80
2023/10/18 10:44:07;;;;;;;5.93;2.40;;;17.40;99.90;;;;;;4954392;29;20263;-85
2023/10/18 10:46:45;;;;;;;7.20;2.70;;;16.80;99.90;;;;;;5022615;23;20313;-84
2023/10/18 10:49:47;;;;;;;4.67;2.53;;;17.00;99.90;;;;;;4918606;29;20214;-78
2023/10/18 11:23:17;;;;;;;8.70;3.10;;;18.40;94.90;;;;;;4854467;23;20273;-81
2023/10/18 11:25:56;;;;;;;8.03;2.87;;;18.00;95.50;;;;;;4953921;29;20249;-79
2023/10/18 11:28:29;;;;;;;6.00;2.70;;;18.00;95.20;;;;;;4946341;29;20883;-83
2023/10/18 11:31:11;;;;;;;5.23;3.00;;;18.60;95.10;;;;;;4953829;29;20657;-79
2023/10/18 11:33:54;;;;;;;4.43;2.90;;;18.70;94.40;;;;;;4936575;29;20209;-80
2023/10/18 11:36:32;;;;;;;8.27;2.90;;;19.60;93.20;;;;;;4928234;29;20752;-84
2023/10/18 11:39:32;;;;;;;4.83;2.67;;;19.80;92.10;;;;;;4917419;29;20194;-82
2023/10/18 11:43:20;;;;;;;4.00;2.90;;;20.10;91.20;;;;;;4908957;29;20203;-79
2023/10/18 11:45:42;;;;;;;4.07;2.60;;;20.10;90.80;;;;;;4934767;29;20202;-79
2023/10/18 11:48:14;;;;;;;4.93;2.97;;;19.30;90.90;;;;;;4934692;29;20189;-79
2023/10/18 11:50:50;;;;;;;4.27;2.53;;;19.30;91.20;;;;;;4902036;29;20203;-80
2023/10/18 11:53:26;;;;;;;4.07;2.50;;;19.10;91.10;;;;;;4935298;29;20566;-78
2023/10/18 11:59:54;;;;;;;6.50;3.30;;;20.10;90.30;;;;;;4802534;29;20219;-86
2023/10/18 12:02:32;;;;;;;3.80;2.87;;;20.40;90.00;;;;;;4802072;29;20726;-79
2023/10/18 12:05:05;;;;;;;3.57;2.77;;;20.00;89.90;;;;;;4802076;29;20270;-77
2023/10/18 12:07:36;;;;;;;4.10;3.10;;;19.80;88.60;;;;;;4802182;29;20231;-78
2023/10/18 12:10:15;;;;;;;5.90;2.97;;;20.00;89.60;;;;;;4822927;29;20272;-79
2023/10/18 12:12:44;;;;;;;6.23;2.90;;;19.90;89.80;;;;;;4824055;29;20230;-78
2023/10/18 12:15:15;;;;;;;5.87;3.60;;;20.50;87.80;;;;;;4823733;29;20207;-73
2023/10/18 12:17:49;;;;;;;5.33;3.50;;;19.70;89.50;;;;;;4823011;29;20211;-78
2023/10/18 12:20:34;;;;;;;7.23;3.50;;;20.30;89.20;;;;;;4824384;29;20384;-78
2023/10/18 12:23:13;;;;;;;4.87;3.20;;;20.80;86.10;;;;;;4823493;29;20241;-79
2023/10/18 12:25:45;;;;;;;7.47;3.50;;;20.60;86.30;;;;;;4823266;29;20293;-79
2023/10/18 12:28:58;;;;;;;5.13;3.63;;;20.50;86.90;;;;;;4823722;29;20257;-78
2023/10/18 12:31:39;;;;;;;6.87;3.80;;;20.40;86.60;;;;;;4736037;30;20205;-79
2023/10/18 12:34:15;;;;;;;7.20;4.27;;;20.90;86.10;;;;;;4737798;30;20206;-78
2023/10/18 12:36:49;;;;;;;9.40;3.77;;;20.50;85.40;;;;;;4823440;29;20255;-79
2023/10/18 12:39:25;;;;;;;4.63;3.30;;;19.00;88.20;;;;;;4864508;29;20765;-80
2023/10/18 12:41:57;;;;;;;6.30;3.60;;;18.40;90.00;;;;;;4848377;29;20300;-78
2023/10/18 12:44:31;;;;;;;6.70;3.50;;;18.40;90.30;;;;;;4877963;29;20221;-81
2023/10/18 12:47:21;;;;;;;5.60;3.77;;;17.80;91.10;;;;;;4864921;29;20201;-78
2023/10/18 12:49:56;;;;;;;4.83;3.20;;;17.50;91.50;;;;;;4847841;29;20208;-78
2023/10/18 12:57:56;;;;;;;5.47;3.30;;;16.30;93.50;;;;;;4878690;29;20259;-77
2023/10/18 13:00:34;;;;;;;5.63;3.20;;;14.80;95.30;;;;;;4878627;29;20760;-84
2023/10/18 13:05:46;;;;;;;5.57;3.30;;;14.40;97.00;;;;;;4878213;29;20677;-80
2023/10/18 13:08:26;;;;;;;5.57;3.60;;;14.50;97.50;;;;;;4905626;29;20692;-81
2023/10/18 13:13:46;;;;;;;7.23;3.63;;;13.60;98.20;;;;;;4915797;29;20208;-80
2023/10/18 13:16:15;;;;;;;5.97;3.30;;;13.60;98.60;;;;;;4915519;29;20229;-78
2023/10/18 13:18:47;;;;;;;7.00;3.50;;;13.70;98.90;;;;;;4900033;29;20671;-85
2023/10/18 13:21:21;;;;;;;6.20;3.87;;;13.80;99.00;;;;;;4898380;29;20259;-77
2023/10/18 13:23:56;;;;;;;8.17;3.80;;;13.80;99.30;;;;;;4899865;29;20817;-83
2023/10/18 13:26:31;;;;;;;7.07;3.80;;;13.50;99.80;;;;;;4915431;29;20203;-84
2023/10/18 13:29:04;;;;;;;7.03;3.87;;;13.70;99.90;;;;;;4900137;29;20235;-79
2023/10/18 13:31:33;;;;;;;7.10;4.10;;;13.50;99.90;;;;;;4899466;29;20209;-79
2023/10/18 13:34:18;;;;;;;5.93;3.80;;;12.80;99.90;;;;;;4900150;29;20192;-79
2023/10/18 13:36:54;;;;;;;7.93;4.03;;;12.90;99.90;;;;;;4915293;29;20231;-79
2023/10/18 13:39:25;;;;;;;6.47;3.70;;;12.90;99.90;;;;;;4915003;29;20187;-80
2023/10/18 13:41:57;;;;;;;6.77;3.80;;;13.10;99.90;;;;;;4900182;29;20649;-78
2023/10/18 13:44:31;;;;;;;6.57;3.97;;;13.10;99.90;;;;;;4915284;29;20239;-85
2023/10/18 13:47:11;;;;;;;7.03;4.30;;;13.00;99.90;;;;;;4897442;29;20203;-79
2023/10/18 13:49:44;;;;;;;7.20;3.93;;;12.70;99.90;;;;;;4915583;29;20410;-80
2023/10/18 13:52:15;;;;;;;7.77;4.13;;;12.50;99.90;;;;;;4936269;29;20705;-80
2023/10/18 13:54:46;;;;;;;7.47;3.97;;;12.60;99.90;;;;;;4918458;29;20269;-78
2023/10/18 13:57:22;;;;;;;6.87;4.03;;;12.80;99.90;;;;;;4918718;29;20587;-79
2023/10/18 13:59:59;;;;;;;6.33;4.17;;;12.90;99.90;;;;;;4936255;29;20195;-84
2023/10/18 14:02:31;;;;;;;8.17;4.60;;;12.90;99.90;;;;;;4936330;29;20191;-83
2023/10/18 14:04:59;;;;;;;6.93;4.30;;;12.70;99.90;;;;;;4919474;29;20225;-80
2023/10/18 14:07:30;;;;;;;7.70;4.40;;;12.80;99.90;;;;;;4918721;29;20666;-81
2023/10/18 14:10:28;;;;;;;7.23;4.23;;;12.60;99.90;;;;;;4935397;29;20698;-79
2023/10/18 14:12:56;;;;;;;7.30;4.33;;;12.60;99.90;;;;;;4919136;29;20673;-79
2023/10/18 14:15:25;;;;;;;8.17;4.57;;;12.50;99.90;;;;;;4919113;29;20311;-78
2023/10/18 14:17:54;;;;;;;11.30;4.20;;;12.50;99.90;;;;;;4936092;29;20202;-78
2023/10/18 14:20:26;;;;;;;8.17;4.10;;;12.60;99.90;;;;;;4936398;29;20191;-78
2023/10/18 14:22:57;;;;;;;6.30;4.10;;;12.30;99.90;;;;;;4936168;29;20238;-80
2023/10/18 14:25:27;;;;;;;9.20;4.27;;;12.40;99.90;;;;;;4919151;29;20274;-78
2023/10/18 14:28:04;;;;;;;7.60;4.00;;;12.30;99.90;;;;;;4935312;29;20258;-79
2023/10/18 14:30:49;;;;;;;6.63;4.17;;;12.40;99.90;;;;;;4919340;29;20183;-81
2023/10/18 14:33:28;;;;;;;8.43;4.20;;;12.40;99.90;;;;;;4903661;29;20220;-80
2023/10/18 16:25:54;;;;;;;10.63;5.83;;;9.70;99.90;;;;;;5577604;23;20260;-84
2023/10/18 16:29:10;;;;;;;14.57;7.27;;;9.70;99.90;;;;;;4762533;29;20215;-83
2023/10/18 16:40:35;;;;;;;14.80;7.40;;;9.30;99.90;;;;;;4700561;30;20301;-84
2023/10/18 16:43:36;;;;;;;13.33;7.07;;;9.30;99.90;;;;;;4633331;30;20578;-79
2023/10/18 16:46:21;;;;;;;12.30;6.67;;;9.20;99.90;;;;;;4663290;30;20305;-80
2023/10/18 16:48:59;;;;;;;14.80;7.30;;;9.10;99.90;;;;;;4730246;30;20230;-80
2023/10/18 16:52:13;;;;;;;12.50;7.10;;;9.10;99.90;;;;;;4730289;30;20672;-81
2023/10/18 16:54:45;;;;;;;13.47;6.80;;;8.90;99.90;;;;;;4747683;30;20677;-81
2023/10/18 16:58:10;;;;;;;12.27;7.17;;;8.90;99.90;;;;;;4748140;30;20217;-80
2023/10/18 17:01:34;;;;;;;12.97;6.80;;;9.10;99.90;;;;;;4754846;30;20528;-86
2023/10/18 17:06:04;;;;;;;15.00;7.43;;;8.90;99.90;;;;;;4718229;30;20774;-83
2023/10/18 17:12:48;;;;;;;14.00;7.77;;;8.80;99.90;;;;;;4726760;30;20534;-84
2023/10/18 17:15:52;;;;;;;13.77;8.00;;;8.50;99.90;;;;;;4712317;30;20229;-82
2023/10/18 17:18:36;;;;;;;17.80;8.03;;;8.60;99.90;;;;;;4713749;30;20230;-80
2023/10/18 17:21:22;;;;;;;19.07;8.30;;;8.30;99.90;;;;;;4715888;30;20207;-80
2023/10/18 17:24:28;;;;;;;15.57;8.47;;;8.70;99.90;;;;;;4692813;30;20245;-87
2023/10/18 17:31:35;;;;;;;15.10;8.17;;;8.50;99.90;;;;;;4716034;30;20202;-81
2023/10/18 17:34:05;;;;;;;17.60;8.47;;;8.50;99.90;;;;;;4723088;30;20257;-82
2023/10/18 17:36:40;;;;;;;17.23;8.60;;;8.30;99.90;;;;;;4765453;30;20215;-81
2023/10/18 17:39:15;;;;;;;17.43;8.77;;;8.50;99.90;;;;;;4761020;30;20211;-82
2023/10/18 17:41:50;;;;;;;15.80;7.97;;;8.20;99.90;;;;;;4766798;30;20677;-80
2023/10/18 17:44:48;;;;;;;15.97;8.30;;;8.20;99.90;;;;;;4785779;30;20240;-87
2023/10/18 17:47:34;;;;;;;17.53;8.27;;;8.10;99.90;;;;;;4767615;29;20239;-86
2023/10/18 17:50:17;;;;;;;17.40;9.37;;;8.40;99.90;;;;;;4827797;29;20304;-81
2023/10/18 17:53:10;;;;;;;22.83;11.03;;;8.30;99.90;;;;;;4828918;29;20206;-81
2023/10/18 17:56:00;;;;;;;19.60;10.80;;;8.00;99.90;;;;;;4826495;29;20224;-81
2023/10/18 17:58:41;;;;;;;23.03;11.83;;;7.90;99.90;;;;;;4827673;29;20206;-85
2023/10/18 18:01:21;;;;;;;24.93;11.27;;;7.70;99.90;;;;;;4827128;29;20203;-84
2023/10/18 18:03:56;;;;;;;20.03;10.80;;;7.90;99.90;;;;;;4842680;29;20631;-87
2023/10/18 18:06:36;;;;;;;18.60;10.63;;;8.00;99.90;;;;;;4826079;29;20202;-82
2023/10/18 18:09:22;;;;;;;27.37;11.33;;;8.10;99.90;;;;;;4825820;29;20208;-81
2023/10/18 18:12:36;;;;;;;20.77;11.23;;;7.80;99.90;;;;;;4792732;29;20694;-85
2023/10/18 18:15:11;;;;;;;21.90;11.03;;;8.00;99.90;;;;;;4788933;29;20199;-85
2023/10/18 18:17:44;;;;;;;22.20;11.80;;;7.70;99.90;;;;;;4788879;29;20241;-81
2023/10/18 18:20:18;;;;;;;22.20;11.07;;;7.70;99.90;;;;;;4803591;29;20347;-83
2023/10/18 18:23:00;;;;;;;25.30;11.73;;;7.80;99.90;;;;;;4803063;29;20687;-87
2023/10/18 18:25:47;;;;;;;23.47;11.87;;;7.70;99.90;;;;;;4802023;29;20348;-78
2023/10/18 18:28:23;;;;;;;23.03;12.00;;;7.90;99.90;;;;;;4787761;29;20679;-84
2023/10/18 18:30:52;;;;;;;25.93;11.87;;;7.90;99.90;;;;;;4773363;29;20310;-82
2023/10/18 18:33:29;;;;;;;24.07;12.27;;;8.00;99.90;;;;;;4789306;29;20754;-82
2023/10/18 18:35:59;;;;;;;24.83;12.20;;;7.90;99.90;;;;;;4803159;29;20208;-80
2023/10/18 18:38:53;;;;;;;25.20;12.23;;;7.80;99.90;;;;;;4801527;29;20208;-80
2023/10/18 18:41:27;;;;;;;23.80;12.27;;;7.70;99.90;;;;;;4803605;29;20593;-81
2023/10/18 18:44:09;;;;;;;23.07;12.30;;;7.60;99.90;;;;;;4821518;29;20693;-89
2023/10/18 18:46:49;;;;;;;23.43;12.40;;;7.70;99.90;;;;;;4825394;29;20684;-81
2023/10/18 18:49:33;;;;;;;28.50;12.60;;;7.50;99.90;;;;;;4840799;29;20205;-81
2023/10/18 18:52:13;;;;;;;23.80;13.00;;;7.70;99.90;;;;;;4827121;29;20198;-82
2023/10/18 18:54:46;;;;;;;23.40;11.87;;;7.40;99.90;;;;;;4842292;29;20189;-81
2023/10/18 18:57:15;;;;;;;23.20;12.20;;;7.40;99.90;;;;;;4825190;29;20215;-86
2023/10/18 19:00:04;;;;;;;24.73;12.57;;;7.40;99.90;;;;;;4824113;29;20197;-85
2023/10/18 19:02:42;;;;;;;25.03;12.53;;;7.30;99.90;;;;;;4825368;29;20235;-79
2023/10/18 19:05:16;;;;;;;23.17;11.57;;;7.30;99.90;;;;;;4824533;29;20234;-80
2023/10/18 19:08:03;;;;;;;24.73;12.60;;;7.30;99.90;;;;;;4831404;29;20210;-78
2023/10/18 19:10:38;;;;;;;28.03;12.77;;;7.30;99.90;;;;;;4841573;29;20291;-81
2023/10/18 19:13:06;;;;;;;25.83;13.30;;;7.20;99.90;;;;;;4841821;29;20283;-81
2023/10/18 19:15:38;;;;;;;26.37;12.87;;;7.50;99.90;;;;;;4825202;29;20237;-81
2023/10/18 19:18:12;;;;;;;23.73;12.90;;;7.40;99.90;;;;;;4825312;29;20663;-81
2023/10/18 19:20:41;;;;;;;23.73;12.20;;;7.30;99.90;;;;;;4840523;29;20279;-81
2023/10/18 19:23:10;;;;;;;21.40;12.33;;;7.30;99.90;;;;;;4840986;29;20207;-81
2023/10/18 19:25:44;;;;;;;23.53;12.43;;;7.00;99.90;;;;;;4839273;29;20319;-81
2023/10/18 19:28:50;;;;;;;25.00;13.53;;;6.90;99.90;;;;;;4823177;29;20213;-82
2023/10/18 19:35:08;;;;;;;24.93;13.13;;;7.00;99.90;;;;;;4837163;29;20201;-79
2023/10/18 19:37:48;;;;;;;30.30;13.57;;;6.80;99.90;;;;;;4840638;29;20674;-81
2023/10/18 19:40:36;;;;;;;26.87;13.33;;;6.70;99.90;;;;;;4824682;29;20223;-81
2023/10/18 19:43:48;;;;;;;23.50;13.13;;;6.90;99.90;;;;;;4779982;29;20222;-82
2023/10/18 19:46:21;;;;;;;23.47;12.87;;;6.60;99.90;;;;;;4768697;30;20234;-79
2023/10/18 19:48:54;;;;;;;26.90;13.17;;;6.50;99.90;;;;;;4784356;29;20257;-80
2023/10/18 19:51:40;;;;;;;24.60;12.83;;;6.50;99.90;;;;;;4783931;29;20212;-81
2023/10/18 19:54:13;;;;;;;25.93;14.13;;;6.50;99.90;;;;;;4784157;30;20219;-80
2023/10/18 19:56:42;;;;;;;26.03;14.27;;;6.50;99.90;;;;;;4783636;30;20247;-79
2023/10/18 19:59:15;;;;;;;24.73;12.67;;;6.50;99.90;;;;;;4768511;30;20729;-80
2023/10/18 20:01:50;;;;;;;25.00;13.70;;;6.50;99.90;;;;;;4768817;29;20569;-81
2023/10/18 20:04:26;;;;;;;28.33;13.63;;;6.60;99.90;;;;;;4754889;30;20694;-80
2023/10/18 20:07:08;;;;;;;24.27;13.80;;;6.50;99.90;;;;;;4793135;29;20205;-80
2023/10/18 20:09:42;;;;;;;28.10;14.63;;;6.30;99.90;;;;;;4839452;29;20196;-82
2023/10/18 20:12:36;;;;;;;24.33;13.70;;;6.40;99.90;;;;;;4823371;29;20215;-81
2023/10/18 20:15:11;;;;;;;26.80;14.23;;;6.30;99.90;;;;;;4824100;29;20313;-81
2023/10/18 20:22:59;;;;;;;;;;;;;;;;;;;;;
2023/10/18 20:26:08;;;;;;;29.23;14.33;;;6.50;99.90;;;;;;4781938;30;20242;-81
2023/10/18 20:29:33;;;;;;;25.50;13.03;;;6.20;99.90;;;;;;4757882;30;20294;-82
2023/10/18 20:32:55;;;;;;;28.10;14.53;;;6.20;99.90;;;;;;4770769;30;20245;-81
2023/10/18 20:36:39;;;;;;;;;;;;;;;;;;;;;
2023/10/18 20:52:06;;;;;;;24.03;13.30;;;5.80;99.90;;;;;;4740425;30;20234;-81
2023/10/18 20:55:32;;;;;;;25.57;13.17;;;6.20;99.90;;;;;;4765794;30;20260;-81
2023/10/18 20:58:07;;;;;;;24.17;13.87;;;5.90;99.90;;;;;;4751199;30;20212;-81
2023/10/18 21:00:45;;;;;;;23.73;13.17;;;5.90;99.90;;;;;;4768578;30;20214;-81
2023/10/18 21:03:16;;;;;;;28.17;13.53;;;6.00;99.90;;;;;;4753476;30;20262;-80
2023/10/18 21:05:53;;;;;;;27.13;13.77;;;5.70;99.90;;;;;;4769998;30;20261;-79
2023/10/18 21:08:33;;;;;;;24.60;13.57;;;5.70;99.90;;;;;;4772236;30;20550;-82
2023/10/18 21:11:27;;;;;;;26.90;12.83;;;5.70;99.90;;;;;;4772687;30;20204;-82
2023/10/18 21:14:00;;;;;;;23.20;12.83;;;5.60;99.90;;;;;;4823566;29;20680;-81
2023/10/18 21:16:30;;;;;;;25.30;14.20;;;5.70;99.90;;;;;;4826805;29;20205;-81
2023/10/18 21:19:04;;;;;;;25.37;13.67;;;5.50;99.90;;;;;;4842189;29;20270;-80
2023/10/18 21:21:33;;;;;;;24.10;13.43;;;5.50;99.90;;;;;;4826839;29;20202;-79
2023/10/18 21:24:00;;;;;;;28.80;14.70;;;5.70;99.90;;;;;;4843291;29;20203;-79
2023/10/18 21:26:28;;;;;;;25.30;14.37;;;5.60;99.90;;;;;;4826566;29;20242;-78
2023/10/18 21:29:21;;;;;;;27.97;14.87;;;5.30;99.90;;;;;;4843100;29;20649;-78
2023/10/18 21:31:53;;;;;;;27.17;14.73;;;5.40;99.90;;;;;;4825534;29;20203;-79
2023/10/18 21:34:21;;;;;;;25.53;14.07;;;5.30;99.90;;;;;;4811735;29;20703;-79
2023/10/18 21:37:01;;;;;;;25.87;14.37;;;5.40;99.90;;;;;;4843286;29;20194;-78
2023/10/18 21:39:30;;;;;;;27.87;14.13;;;5.40;99.90;;;;;;4841785;29;20202;-78
2023/10/18 21:41:58;;;;;;;24.13;14.10;;;5.60;99.90;;;;;;4840094;29;20205;-79
2023/10/18 21:44:26;;;;;;;24.83;13.90;;;5.40;99.90;;;;;;4841345;29;20218;-78
2023/10/18 21:46:59;;;;;;;25.97;13.03;;;5.30;99.90;;;;;;4826400;29;20220;-79
2023/10/18 21:49:34;;;;;;;25.67;13.40;;;5.40;99.90;;;;;;4841505;29;20204;-79
2023/10/18 21:52:05;;;;;;;27.67;13.60;;;5.60;99.90;;;;;;4843050;29;20229;-78
2023/10/18 21:54:42;;;;;;;26.13;13.60;;;5.40;99.90;;;;;;4839781;29;20267;-85
2023/10/18 21:57:19;;;;;;;26.23;13.97;;;5.50;99.90;;;;;;4826365;29;20194;-83
2023/10/18 21:59:52;;;;;;;25.53;13.73;;;5.50;99.90;;;;;;4842975;29;20229;-84
2023/10/18 22:02:29;;;;;;;26.87;13.43;;;5.70;99.90;;;;;;4842905;29;20222;-83
2023/10/18 22:05:04;;;;;;;24.57;13.37;;;5.70;99.90;;;;;;4827322;29;20236;-83
2023/10/18 22:07:38;;;;;;;27.67;14.33;;;5.40;99.90;;;;;;4842141;29;20201;-84
2023/10/18 22:10:10;;;;;;;29.57;14.03;;;5.60;99.90;;;;;;4825978;29;20203;-84
2023/10/18 22:12:44;;;;;;;26.90;14.13;;;5.40;99.90;;;;;;4842886;29;20670;-78
2023/10/18 22:15:25;;;;;;;23.17;12.93;;;5.30;99.90;;;;;;4843258;29;20194;-78
2023/10/18 22:17:56;;;;;;;23.53;13.10;;;5.30;99.90;;;;;;4840902;29;20247;-85
2023/10/18 22:20:24;;;;;;;26.00;14.00;;;5.20;99.90;;;;;;4842897;29;20674;-85
2023/10/18 22:22:52;;;;;;;24.30;13.60;;;5.10;99.90;;;;;;4842647;29;20271;-84
2023/10/18 22:25:22;;;;;;;24.90;13.93;;;5.30;99.90;;;;;;4824557;29;20563;-84
2023/10/18 22:27:59;;;;;;;24.30;13.13;;;5.00;99.90;;;;;;4842493;29;20276;-83
2023/10/18 22:30:37;;;;;;;23.33;13.53;;;4.80;99.90;;;;;;4802858;29;20229;-84
2023/10/18 22:33:21;;;;;;;23.80;13.77;;;5.00;99.90;;;;;;4803787;29;20248;-78
2023/10/18 22:35:55;;;;;;;28.53;14.23;;;5.00;99.90;;;;;;4803863;29;20230;-77
2023/10/18 22:38:39;;;;;;;24.27;13.33;;;4.80;99.90;;;;;;4802075;29;20633;-78
2023/10/18 22:41:22;;;;;;;31.23;13.73;;;4.80;99.90;;;;;;4803210;29;20307;-78
2023/10/18 22:44:08;;;;;;;26.17;13.60;;;4.90;99.90;;;;;;4803190;29;20217;-79
2023/10/18 22:49:45;;;;;;;29.00;14.97;;;4.80;99.90;;;;;;4835917;29;20601;-84
2023/10/18 22:52:26;;;;;;;28.87;14.87;;;4.90;99.90;;;;;;4842159;29;20233;-78
2023/10/18 22:55:00;;;;;;;26.53;14.83;;;4.80;99.90;;;;;;4824559;29;20689;-77
2023/10/18 22:57:37;;;;;;;27.07;15.73;;;4.70;99.90;;;;;;4842072;29;20206;-81
2023/10/18 23:00:18;;;;;;;28.97;15.50;;;4.80;99.90;;;;;;4825615;29;20203;-80
2023/10/18 23:03:04;;;;;;;26.97;15.83;;;4.70;99.90;;;;;;4825357;29;20237;-81
2023/10/18 23:05:46;;;;;;;30.10;16.00;;;4.90;99.90;;;;;;4840736;29;20232;-82
2023/10/18 23:08:26;;;;;;;29.87;16.27;;;4.70;99.90;;;;;;4824678;29;20196;-81
2023/10/18 23:11:01;;;;;;;30.40;16.03;;;4.70;99.90;;;;;;4824731;29;20202;-82
2023/10/18 23:13:47;;;;;;;29.07;14.90;;;4.50;99.90;;;;;;4825191;29;20221;-81
2023/10/18 23:17:05;;;;;;;38.00;17.17;;;4.60;99.90;;;;;;4825158;29;20267;-82
2023/10/18 23:22:33;;;;;;;29.70;16.33;;;4.80;99.90;;;;;;4824772;29;20294;-80
2023/10/18 23:28:13;;;;;;;27.43;16.20;;;4.60;99.90;;;;;;4840924;29;20206;-78
2023/10/18 23:30:57;;;;;;;29.57;16.40;;;4.60;99.90;;;;;;4825819;29;20202;-80
2023/10/18 23:33:33;;;;;;;31.67;15.87;;;4.70;99.90;;;;;;4824396;29;20227;-81
2023/10/18 23:36:14;;;;;;;32.13;16.97;;;4.60;99.90;;;;;;4839150;29;20207;-81
2023/10/18 23:38:43;;;;;;;32.33;16.67;;;4.50;99.90;;;;;;4825325;29;20179;-81
2023/10/18 23:41:28;;;;;;;30.33;15.93;;;4.60;99.90;;;;;;4841139;29;20228;-82
2023/10/18 23:44:19;;;;;;;29.90;17.33;;;4.50;99.90;;;;;;4824556;29;20212;-81
2023/10/18 23:47:03;;;;;;;34.90;17.40;;;4.50;99.90;;;;;;4841432;29;20575;-81
2023/10/18 23:49:44;;;;;;;31.33;17.50;;;4.60;99.90;;;;;;4840033;29;20211;-79
2023/10/18 23:52:35;;;;;;;30.83;16.87;;;4.50;99.90;;;;;;4840282;29;20191;-79
2023/10/18 23:55:13;;;;;;;31.87;17.17;;;4.50;99.90;;;;;;4839089;29;20196;-80
2023/10/18 23:58:15;;;;;;;32.23;16.93;;;4.30;99.90;;;;;;4840835;29;20187;-80
